sensor_id;sensor_type;location;lat;lon;timestamp;P1;durP1;ratioP1;P2;durP2;ratioP2
75858;SDS011;64504;51.308;8.620;2022-11-18T00:01:43;17.65;;;6.35;;
75858;SDS011;64504;51.308;8.620;2022-11-18T00:04:09;25.63;;;10.02;;
75858;SDS011;64504;51.308;8.620;2022-11-18T00:06:34;72.78;;;29.60;;
75858;SDS011;64504;51.308;8.620;2022-11-18T00:08:59;31.63;;;12.73;;
75858;SDS011;64504;51.308;8.620;2022-11-18T00:11:25;15.15;;;8.90;;
75858;SDS011;64504;51.308;8.620;2022-11-18T00:14:23;14.68;;;9.55;;
75858;SDS011;64504;51.308;8.620;2022-11-18T00:19:31;1.77;;;1.67;;
75858;SDS011;64504;51.308;8.620;2022-11-18T00:21:57;1.38;;;1.23;;
75858;SDS011;64504;51.308;8.620;2022-11-18T00:24:23;2.78;;;1.67;;
75858;SDS011;64504;51.308;8.620;2022-11-18T00:26:50;2.55;;;1.45;;
75858;SDS011;64504;51.308;8.620;2022-11-18T00:29:15;1.48;;;1.13;;
75858;SDS011;64504;51.308;8.620;2022-11-18T00:31:41;2.35;;;1.67;;
75858;SDS011;64504;51.308;8.620;2022-11-18T00:34:09;0.85;;;0.73;;
75858;SDS011;64504;51.308;8.620;2022-11-18T00:36:35;1.15;;;1.05;;
75858;SDS011;64504;51.308;8.620;2022-11-18T00:39:01;8.40;;;2.05;;
75858;SDS011;64504;51.308;8.620;2022-11-18T00:41:26;1.45;;;1.35;;
75858;SDS011;64504;51.308;8.620;2022-11-18T00:44:12;8.77;;;4.13;;
75858;SDS011;64504;51.308;8.620;2022-11-18T00:46:37;6.60;;;3.42;;
75858;SDS011;64504;51.308;8.620;2022-11-18T00:49:04;6.32;;;2.67;;
75858;SDS011;64504;51.308;8.620;2022-11-18T00:51:30;6.32;;;4.15;;
75858;SDS011;64504;51.308;8.620;2022-11-18T00:53:56;33.67;;;14.50;;
75858;SDS011;64504;51.308;8.620;2022-11-18T00:56:21;28.40;;;14.98;;
75858;SDS011;64504;51.308;8.620;2022-11-18T00:58:47;16.35;;;10.30;;
75858;SDS011;64504;51.308;8.620;2022-11-18T01:01:12;40.70;;;20.40;;
75858;SDS011;64504;51.308;8.620;2022-11-18T01:03:38;50.50;;;23.45;;
75858;SDS011;64504;51.308;8.620;2022-11-18T01:06:03;42.92;;;19.42;;
75858;SDS011;64504;51.308;8.620;2022-11-18T01:08:29;29.23;;;16.63;;
75858;SDS011;64504;51.308;8.620;2022-11-18T01:10:54;20.75;;;13.43;;
75858;SDS011;64504;51.308;8.620;2022-11-18T01:13:40;32.40;;;21.48;;
75858;SDS011;64504;51.308;8.620;2022-11-18T01:16:05;8.98;;;7.03;;
75858;SDS011;64504;51.308;8.620;2022-11-18T01:18:32;7.40;;;5.43;;
75858;SDS011;64504;51.308;8.620;2022-11-18T01:21:01;7.72;;;4.45;;
75858;SDS011;64504;51.308;8.620;2022-11-18T01:23:27;8.27;;;6.60;;
75858;SDS011;64504;51.308;8.620;2022-11-18T01:25:53;9.77;;;6.90;;
75858;SDS011;64504;51.308;8.620;2022-11-18T01:28:18;12.43;;;6.85;;
75858;SDS011;64504;51.308;8.620;2022-11-18T01:30:44;9.38;;;6.13;;
75858;SDS011;64504;51.308;8.620;2022-11-18T01:33:09;11.20;;;5.93;;
75858;SDS011;64504;51.308;8.620;2022-11-18T01:35:36;15.10;;;6.13;;
75858;SDS011;64504;51.308;8.620;2022-11-18T01:38:06;6.22;;;4.63;;
75858;SDS011;64504;51.308;8.620;2022-11-18T01:40:33;5.78;;;4.63;;
75858;SDS011;64504;51.308;8.620;2022-11-18T01:42:59;4.75;;;3.80;;
75858;SDS011;64504;51.308;8.620;2022-11-18T01:45:30;8.80;;;5.60;;
75858;SDS011;64504;51.308;8.620;2022-11-18T01:47:58;7.25;;;5.80;;
75858;SDS011;64504;51.308;8.620;2022-11-18T01:50:27;8.40;;;5.78;;
75858;SDS011;64504;51.308;8.620;2022-11-18T01:52:53;8.45;;;3.78;;
75858;SDS011;64504;51.308;8.620;2022-11-18T01:55:23;3.85;;;3.55;;
75858;SDS011;64504;51.308;8.620;2022-11-18T01:57:50;4.93;;;3.90;;
75858;SDS011;64504;51.308;8.620;2022-11-18T02:00:16;10.00;;;5.25;;
75858;SDS011;64504;51.308;8.620;2022-11-18T02:02:41;6.68;;;4.88;;
75858;SDS011;64504;51.308;8.620;2022-11-18T02:05:07;9.85;;;3.95;;
75858;SDS011;64504;51.308;8.620;2022-11-18T02:07:38;11.18;;;3.47;;
75858;SDS011;64504;51.308;8.620;2022-11-18T02:10:07;3.25;;;2.67;;
75858;SDS011;64504;51.308;8.620;2022-11-18T02:12:34;2.92;;;1.40;;
75858;SDS011;64504;51.308;8.620;2022-11-18T02:14:59;1.48;;;1.38;;
75858;SDS011;64504;51.308;8.620;2022-11-18T02:25:34;1.23;;;1.10;;
75858;SDS011;64504;51.308;8.620;2022-11-18T02:31:14;2.78;;;1.13;;
75858;SDS011;64504;51.308;8.620;2022-11-18T02:36:17;1.00;;;1.00;;
75858;SDS011;64504;51.308;8.620;2022-11-18T02:38:46;3.28;;;1.40;;
75858;SDS011;64504;51.308;8.620;2022-11-18T02:41:16;2.50;;;1.65;;
75858;SDS011;64504;51.308;8.620;2022-11-18T02:43:51;1.90;;;1.40;;
75858;SDS011;64504;51.308;8.620;2022-11-18T02:46:26;2.05;;;1.02;;
75858;SDS011;64504;51.308;8.620;2022-11-18T02:48:54;1.27;;;1.17;;
75858;SDS011;64504;51.308;8.620;2022-11-18T02:51:22;0.95;;;0.88;;
75858;SDS011;64504;51.308;8.620;2022-11-18T02:53:50;6.70;;;1.17;;
75858;SDS011;64504;51.308;8.620;2022-11-18T02:56:16;7.57;;;1.50;;
75858;SDS011;64504;51.308;8.620;2022-11-18T02:58:43;1.00;;;0.93;;
75858;SDS011;64504;51.308;8.620;2022-11-18T03:04:03;0.90;;;0.50;;
75858;SDS011;64504;51.308;8.620;2022-11-18T03:07:12;1.80;;;1.55;;
75858;SDS011;64504;51.308;8.620;2022-11-18T03:12:00;1.20;;;1.10;;
75858;SDS011;64504;51.308;8.620;2022-11-18T03:22:56;0.73;;;0.73;;
75858;SDS011;64504;51.308;8.620;2022-11-18T03:28:06;0.87;;;0.87;;
75858;SDS011;64504;51.308;8.620;2022-11-18T03:30:37;0.70;;;0.70;;
75858;SDS011;64504;51.308;8.620;2022-11-18T03:33:07;1.40;;;1.23;;
75858;SDS011;64504;51.308;8.620;2022-11-18T03:35:36;0.98;;;0.60;;
75858;SDS011;64504;51.308;8.620;2022-11-18T03:38:08;3.80;;;0.98;;
75858;SDS011;64504;51.308;8.620;2022-11-18T03:40:37;0.50;;;0.50;;
75858;SDS011;64504;51.308;8.620;2022-11-18T03:43:38;1.10;;;1.02;;
75858;SDS011;64504;51.308;8.620;2022-11-18T03:46:00;0.77;;;0.77;;
75858;SDS011;64504;51.308;8.620;2022-11-18T03:48:41;0.82;;;0.82;;
75858;SDS011;64504;51.308;8.620;2022-11-18T03:51:10;1.33;;;1.23;;
75858;SDS011;64504;51.308;8.620;2022-11-18T03:53:40;3.83;;;1.05;;
75858;SDS011;64504;51.308;8.620;2022-11-18T03:56:09;1.38;;;0.73;;
75858;SDS011;64504;51.308;8.620;2022-11-18T03:58:39;1.02;;;0.93;;
75858;SDS011;64504;51.308;8.620;2022-11-18T04:01:10;0.63;;;0.63;;
75858;SDS011;64504;51.308;8.620;2022-11-18T04:03:37;0.88;;;0.77;;
75858;SDS011;64504;51.308;8.620;2022-11-18T04:06:08;0.75;;;0.70;;
75858;SDS011;64504;51.308;8.620;2022-11-18T04:08:40;0.98;;;0.90;;
75858;SDS011;64504;51.308;8.620;2022-11-18T04:11:08;1.17;;;0.77;;
75858;SDS011;64504;51.308;8.620;2022-11-18T04:13:58;1.65;;;1.02;;
75858;SDS011;64504;51.308;8.620;2022-11-18T04:16:24;2.22;;;1.25;;
75858;SDS011;64504;51.308;8.620;2022-11-18T04:18:51;6.60;;;1.48;;
75858;SDS011;64504;51.308;8.620;2022-11-18T04:21:16;0.82;;;0.82;;
75858;SDS011;64504;51.308;8.620;2022-11-18T04:23:42;1.17;;;0.95;;
75858;SDS011;64504;51.308;8.620;2022-11-18T04:26:07;3.80;;;1.23;;
75858;SDS011;64504;51.308;8.620;2022-11-18T04:28:33;2.90;;;0.82;;
75858;SDS011;64504;51.308;8.620;2022-11-18T04:30:58;0.90;;;0.90;;
75858;SDS011;64504;51.308;8.620;2022-11-18T04:33:24;3.10;;;1.10;;
75858;SDS011;64504;51.308;8.620;2022-11-18T04:35:49;1.40;;;0.85;;
75858;SDS011;64504;51.308;8.620;2022-11-18T04:38:15;1.58;;;1.23;;
75858;SDS011;64504;51.308;8.620;2022-11-18T04:40:40;0.98;;;0.90;;
75858;SDS011;64504;51.308;8.620;2022-11-18T04:43:05;1.98;;;1.00;;
75858;SDS011;64504;51.308;8.620;2022-11-18T04:45:31;1.35;;;1.17;;
75858;SDS011;64504;51.308;8.620;2022-11-18T04:47:56;0.55;;;0.55;;
75858;SDS011;64504;51.308;8.620;2022-11-18T04:50:23;0.60;;;0.60;;
75858;SDS011;64504;51.308;8.620;2022-11-18T04:52:48;3.85;;;0.90;;
75858;SDS011;64504;51.308;8.620;2022-11-18T04:55:14;0.77;;;0.70;;
75858;SDS011;64504;51.308;8.620;2022-11-18T04:57:39;1.85;;;0.70;;
75858;SDS011;64504;51.308;8.620;2022-11-18T05:00:05;1.23;;;1.13;;
75858;SDS011;64504;51.308;8.620;2022-11-18T05:02:31;1.35;;;0.98;;
75858;SDS011;64504;51.308;8.620;2022-11-18T05:04:56;3.63;;;1.00;;
75858;SDS011;64504;51.308;8.620;2022-11-18T05:07:21;1.55;;;1.45;;
75858;SDS011;64504;51.308;8.620;2022-11-18T05:09:47;2.85;;;1.13;;
75858;SDS011;64504;51.308;8.620;2022-11-18T05:12:13;2.47;;;1.00;;
75858;SDS011;64504;51.308;8.620;2022-11-18T05:14:57;1.33;;;0.93;;
75858;SDS011;64504;51.308;8.620;2022-11-18T05:17:24;0.90;;;0.90;;
75858;SDS011;64504;51.308;8.620;2022-11-18T05:19:50;0.77;;;0.77;;
75858;SDS011;64504;51.308;8.620;2022-11-18T05:22:16;4.40;;;1.48;;
75858;SDS011;64504;51.308;8.620;2022-11-18T05:24:41;6.07;;;0.70;;
75858;SDS011;64504;51.308;8.620;2022-11-18T05:27:07;2.33;;;0.65;;
75858;SDS011;64504;51.308;8.620;2022-11-18T05:29:32;5.60;;;1.15;;
75858;SDS011;64504;51.308;8.620;2022-11-18T05:31:58;0.98;;;0.70;;
75858;SDS011;64504;51.308;8.620;2022-11-18T05:34:23;0.60;;;0.60;;
75858;SDS011;64504;51.308;8.620;2022-11-18T05:36:49;1.63;;;0.88;;
75858;SDS011;64504;51.308;8.620;2022-11-18T05:39:15;0.50;;;0.50;;
75858;SDS011;64504;51.308;8.620;2022-11-18T05:41:40;0.63;;;0.63;;
75858;SDS011;64504;51.308;8.620;2022-11-18T05:44:24;2.60;;;1.00;;
75858;SDS011;64504;51.308;8.620;2022-11-18T05:46:50;7.63;;;1.10;;
75858;SDS011;64504;51.308;8.620;2022-11-18T05:49:15;1.08;;;1.08;;
75858;SDS011;64504;51.308;8.620;2022-11-18T05:51:40;1.52;;;1.00;;
75858;SDS011;64504;51.308;8.620;2022-11-18T05:54:07;2.00;;;0.88;;
75858;SDS011;64504;51.308;8.620;2022-11-18T05:56:37;0.57;;;0.57;;
75858;SDS011;64504;51.308;8.620;2022-11-18T05:59:04;0.88;;;0.88;;
75858;SDS011;64504;51.308;8.620;2022-11-18T06:04:11;2.03;;;1.08;;
75858;SDS011;64504;51.308;8.620;2022-11-18T06:06:40;1.90;;;1.48;;
75858;SDS011;64504;51.308;8.620;2022-11-18T06:09:06;1.17;;;1.08;;
75858;SDS011;64504;51.308;8.620;2022-11-18T06:11:43;0.68;;;0.68;;
75858;SDS011;64504;51.308;8.620;2022-11-18T06:14:14;3.15;;;0.70;;
75858;SDS011;64504;51.308;8.620;2022-11-18T06:16:45;1.00;;;0.93;;
75858;SDS011;64504;51.308;8.620;2022-11-18T06:19:14;1.00;;;0.88;;
75858;SDS011;64504;51.308;8.620;2022-11-18T06:21:40;1.73;;;1.17;;
75858;SDS011;64504;51.308;8.620;2022-11-18T06:24:06;0.82;;;0.82;;
75858;SDS011;64504;51.308;8.620;2022-11-18T06:26:34;0.90;;;0.90;;
75858;SDS011;64504;51.308;8.620;2022-11-18T06:29:02;0.93;;;0.93;;
75858;SDS011;64504;51.308;8.620;2022-11-18T06:31:28;1.95;;;1.17;;
75858;SDS011;64504;51.308;8.620;2022-11-18T06:33:53;2.28;;;1.38;;
75858;SDS011;64504;51.308;8.620;2022-11-18T06:36:19;1.55;;;1.45;;
75858;SDS011;64504;51.308;8.620;2022-11-18T06:38:45;1.65;;;1.55;;
75858;SDS011;64504;51.308;8.620;2022-11-18T06:41:11;1.35;;;1.25;;
75858;SDS011;64504;51.308;8.620;2022-11-18T06:43:36;8.60;;;2.33;;
75858;SDS011;64504;51.308;8.620;2022-11-18T06:46:14;5.55;;;1.45;;
75858;SDS011;64504;51.308;8.620;2022-11-18T06:48:59;2.38;;;1.08;;
75858;SDS011;64504;51.308;8.620;2022-11-18T06:51:26;3.63;;;2.03;;
75858;SDS011;64504;51.308;8.620;2022-11-18T06:53:52;1.45;;;1.00;;
75858;SDS011;64504;51.308;8.620;2022-11-18T06:56:18;0.75;;;0.75;;
75858;SDS011;64504;51.308;8.620;2022-11-18T06:58:44;1.10;;;1.00;;
75858;SDS011;64504;51.308;8.620;2022-11-18T07:01:14;2.17;;;1.55;;
75858;SDS011;64504;51.308;8.620;2022-11-18T07:03:40;2.83;;;1.33;;
75858;SDS011;64504;51.308;8.620;2022-11-18T07:06:06;0.90;;;0.65;;
75858;SDS011;64504;51.308;8.620;2022-11-18T07:08:37;0.85;;;0.85;;
75858;SDS011;64504;51.308;8.620;2022-11-18T07:11:05;1.92;;;1.00;;
75858;SDS011;64504;51.308;8.620;2022-11-18T07:13:32;1.05;;;0.95;;
75858;SDS011;64504;51.308;8.620;2022-11-18T07:16:40;2.17;;;1.15;;
75858;SDS011;64504;51.308;8.620;2022-11-18T07:18:51;2.10;;;1.48;;
75858;SDS011;64504;51.308;8.620;2022-11-18T07:21:21;1.23;;;1.08;;
75858;SDS011;64504;51.308;8.620;2022-11-18T07:23:49;0.68;;;0.68;;
75858;SDS011;64504;51.308;8.620;2022-11-18T07:26:15;3.55;;;2.30;;
75858;SDS011;64504;51.308;8.620;2022-11-18T07:28:41;3.15;;;1.58;;
75858;SDS011;64504;51.308;8.620;2022-11-18T07:31:08;1.23;;;1.00;;
75858;SDS011;64504;51.308;8.620;2022-11-18T07:33:37;2.47;;;1.90;;
75858;SDS011;64504;51.308;8.620;2022-11-18T07:36:05;0.80;;;0.80;;
75858;SDS011;64504;51.308;8.620;2022-11-18T07:38:35;1.50;;;1.40;;
75858;SDS011;64504;51.308;8.620;2022-11-18T07:43:30;0.73;;;0.73;;
75858;SDS011;64504;51.308;8.620;2022-11-18T07:45:56;1.13;;;1.02;;
75858;SDS011;64504;51.308;8.620;2022-11-18T07:48:23;0.90;;;0.65;;
75858;SDS011;64504;51.308;8.620;2022-11-18T07:50:49;3.10;;;2.03;;
75858;SDS011;64504;51.308;8.620;2022-11-18T07:53:16;2.20;;;1.58;;
75858;SDS011;64504;51.308;8.620;2022-11-18T07:55:41;3.85;;;1.05;;
75858;SDS011;64504;51.308;8.620;2022-11-18T07:58:07;1.23;;;1.20;;
75858;SDS011;64504;51.308;8.620;2022-11-18T08:00:35;1.70;;;1.60;;
75858;SDS011;64504;51.308;8.620;2022-11-18T08:03:00;1.00;;;1.00;;
75858;SDS011;64504;51.308;8.620;2022-11-18T08:05:26;1.00;;;1.00;;
75858;SDS011;64504;51.308;8.620;2022-11-18T08:07:51;1.63;;;1.45;;
75858;SDS011;64504;51.308;8.620;2022-11-18T08:10:17;1.83;;;1.38;;
75858;SDS011;64504;51.308;8.620;2022-11-18T08:12:42;2.30;;;1.38;;
75858;SDS011;64504;51.308;8.620;2022-11-18T08:15:08;5.63;;;1.23;;
75858;SDS011;64504;51.308;8.620;2022-11-18T08:17:34;2.60;;;1.23;;
75858;SDS011;64504;51.308;8.620;2022-11-18T08:20:02;1.50;;;1.20;;
75858;SDS011;64504;51.308;8.620;2022-11-18T08:22:28;3.38;;;1.55;;
75858;SDS011;64504;51.308;8.620;2022-11-18T08:24:53;1.25;;;1.20;;
75858;SDS011;64504;51.308;8.620;2022-11-18T08:27:19;1.45;;;1.33;;
75858;SDS011;64504;51.308;8.620;2022-11-18T08:29:44;4.25;;;2.03;;
75858;SDS011;64504;51.308;8.620;2022-11-18T08:32:10;1.75;;;1.65;;
75858;SDS011;64504;51.308;8.620;2022-11-18T08:34:39;4.57;;;3.10;;
75858;SDS011;64504;51.308;8.620;2022-11-18T08:37:04;2.97;;;2.75;;
75858;SDS011;64504;51.308;8.620;2022-11-18T08:39:30;5.45;;;2.22;;
75858;SDS011;64504;51.308;8.620;2022-11-18T08:41:56;2.35;;;2.13;;
75858;SDS011;64504;51.308;8.620;2022-11-18T08:44:22;2.60;;;2.35;;
75858;SDS011;64504;51.308;8.620;2022-11-18T08:46:47;2.78;;;2.17;;
75858;SDS011;64504;51.308;8.620;2022-11-18T08:49:13;2.53;;;2.33;;
75858;SDS011;64504;51.308;8.620;2022-11-18T08:51:39;10.13;;;3.28;;
75858;SDS011;64504;51.308;8.620;2022-11-18T08:54:04;2.40;;;1.85;;
75858;SDS011;64504;51.308;8.620;2022-11-18T08:56:32;7.65;;;3.67;;
75858;SDS011;64504;51.308;8.620;2022-11-18T08:58:59;8.00;;;2.42;;
75858;SDS011;64504;51.308;8.620;2022-11-18T09:01:24;7.00;;;2.10;;
75858;SDS011;64504;51.308;8.620;2022-11-18T09:03:50;1.48;;;1.38;;
75858;SDS011;64504;51.308;8.620;2022-11-18T09:06:18;9.57;;;2.72;;
75858;SDS011;64504;51.308;8.620;2022-11-18T09:08:45;2.92;;;2.28;;
75858;SDS011;64504;51.308;8.620;2022-11-18T09:11:12;4.20;;;2.35;;
75858;SDS011;64504;51.308;8.620;2022-11-18T09:13:41;6.10;;;2.08;;
75858;SDS011;64504;51.308;8.620;2022-11-18T09:16:07;4.60;;;2.92;;
75858;SDS011;64504;51.308;8.620;2022-11-18T09:18:33;2.63;;;2.25;;
75858;SDS011;64504;51.308;8.620;2022-11-18T09:21:00;2.70;;;2.35;;
75858;SDS011;64504;51.308;8.620;2022-11-18T09:23:27;1.85;;;1.73;;
75858;SDS011;64504;51.308;8.620;2022-11-18T09:26:03;4.10;;;1.75;;
75858;SDS011;64504;51.308;8.620;2022-11-18T09:28:30;5.10;;;2.47;;
75858;SDS011;64504;51.308;8.620;2022-11-18T09:30:56;13.82;;;3.75;;
75858;SDS011;64504;51.308;8.620;2022-11-18T09:33:23;2.70;;;2.20;;
75858;SDS011;64504;51.308;8.620;2022-11-18T09:35:48;3.92;;;2.45;;
75858;SDS011;64504;51.308;8.620;2022-11-18T09:38:14;5.43;;;2.38;;
75858;SDS011;64504;51.308;8.620;2022-11-18T09:46:17;2.50;;;2.00;;
75858;SDS011;64504;51.308;8.620;2022-11-18T09:48:48;8.13;;;2.25;;
75858;SDS011;64504;51.308;8.620;2022-11-18T09:51:33;2.33;;;1.83;;
75858;SDS011;64504;51.308;8.620;2022-11-18T09:54:04;5.70;;;1.98;;
75858;SDS011;64504;51.308;8.620;2022-11-18T09:56:33;1.30;;;1.20;;
75858;SDS011;64504;51.308;8.620;2022-11-18T09:58:59;1.20;;;1.10;;
75858;SDS011;64504;51.308;8.620;2022-11-18T10:01:24;0.77;;;0.77;;
75858;SDS011;64504;51.308;8.620;2022-11-18T10:03:50;3.35;;;0.57;;
75858;SDS011;64504;51.308;8.620;2022-11-18T10:08:56;0.40;;;0.40;;
75858;SDS011;64504;51.308;8.620;2022-11-18T10:11:34;0.55;;;0.52;;
75858;SDS011;64504;51.308;8.620;2022-11-18T10:14:09;1.35;;;0.82;;
75858;SDS011;64504;51.308;8.620;2022-11-18T10:24:50;1.95;;;1.25;;
75858;SDS011;64504;51.308;8.620;2022-11-18T10:27:17;0.82;;;0.73;;
75858;SDS011;64504;51.308;8.620;2022-11-18T10:29:44;0.70;;;0.68;;
75858;SDS011;64504;51.308;8.620;2022-11-18T10:32:13;0.50;;;0.50;;
75858;SDS011;64504;51.308;8.620;2022-11-18T10:34:51;2.67;;;1.08;;
75858;SDS011;64504;51.308;8.620;2022-11-18T10:39:54;0.77;;;0.77;;
75858;SDS011;64504;51.308;8.620;2022-11-18T10:42:25;0.45;;;0.45;;
75858;SDS011;64504;51.308;8.620;2022-11-18T10:44:53;0.52;;;0.52;;
75858;SDS011;64504;51.308;8.620;2022-11-18T10:47:21;0.55;;;0.50;;
75858;SDS011;64504;51.308;8.620;2022-11-18T10:49:50;0.43;;;0.43;;
75858;SDS011;64504;51.308;8.620;2022-11-18T10:52:17;5.72;;;1.15;;
75858;SDS011;64504;51.308;8.620;2022-11-18T10:54:44;0.98;;;0.65;;
75858;SDS011;64504;51.308;8.620;2022-11-18T10:57:23;0.63;;;0.60;;
75858;SDS011;64504;51.308;8.620;2022-11-18T10:59:55;1.02;;;1.02;;
75858;SDS011;64504;51.308;8.620;2022-11-18T11:04:50;0.52;;;0.52;;
75858;SDS011;64504;51.308;8.620;2022-11-18T11:07:32;6.35;;;0.73;;
75858;SDS011;64504;51.308;8.620;2022-11-18T11:10:00;1.45;;;1.30;;
75858;SDS011;64504;51.308;8.620;2022-11-18T11:12:33;3.22;;;2.15;;
75858;SDS011;64504;51.308;8.620;2022-11-18T11:15:04;3.78;;;2.80;;
75858;SDS011;64504;51.308;8.620;2022-11-18T11:20:42;2.83;;;2.30;;
75858;SDS011;64504;51.308;8.620;2022-11-18T11:23:09;2.42;;;0.90;;
75858;SDS011;64504;51.308;8.620;2022-11-18T11:25:42;1.30;;;0.90;;
75858;SDS011;64504;51.308;8.620;2022-11-18T11:32:04;0.60;;;0.60;;
75858;SDS011;64504;51.308;8.620;2022-11-18T11:34:05;0.90;;;0.82;;
75858;SDS011;64504;51.308;8.620;2022-11-18T11:44:28;1.20;;;1.05;;
75858;SDS011;64504;51.308;8.620;2022-11-18T11:50:05;0.82;;;0.82;;
75858;SDS011;64504;51.308;8.620;2022-11-18T12:02:21;3.13;;;1.52;;
75858;SDS011;64504;51.308;8.620;2022-11-18T12:05:30;1.85;;;1.33;;
75858;SDS011;64504;51.308;8.620;2022-11-18T12:08:05;3.83;;;1.13;;
75858;SDS011;64504;51.308;8.620;2022-11-18T12:19:06;2.75;;;1.08;;
75858;SDS011;64504;51.308;8.620;2022-11-18T12:26:51;4.25;;;0.98;;
75858;SDS011;64504;51.308;8.620;2022-11-18T12:31:51;0.60;;;0.60;;
75858;SDS011;64504;51.308;8.620;2022-11-18T12:36:49;1.52;;;1.27;;
75858;SDS011;64504;51.308;8.620;2022-11-18T12:41:59;0.57;;;0.52;;
75858;SDS011;64504;51.308;8.620;2022-11-18T12:44:45;2.40;;;1.38;;
75858;SDS011;64504;51.308;8.620;2022-11-18T12:47:13;1.25;;;1.10;;
75858;SDS011;64504;51.308;8.620;2022-11-18T12:54:57;1.85;;;1.63;;
75858;SDS011;64504;51.308;8.620;2022-11-18T12:57:27;2.55;;;2.35;;
75858;SDS011;64504;51.308;8.620;2022-11-18T12:59:55;1.70;;;1.60;;
75858;SDS011;64504;51.308;8.620;2022-11-18T13:07:50;1.52;;;1.27;;
75858;SDS011;64504;51.308;8.620;2022-11-18T13:10:38;2.30;;;2.05;;
75858;SDS011;64504;51.308;8.620;2022-11-18T13:13:21;3.72;;;2.13;;
75858;SDS011;64504;51.308;8.620;2022-11-18T13:15:52;4.18;;;1.90;;
75858;SDS011;64504;51.308;8.620;2022-11-18T13:18:52;3.33;;;2.42;;
75858;SDS011;64504;51.308;8.620;2022-11-18T13:21:19;1.67;;;1.58;;
75858;SDS011;64504;51.308;8.620;2022-11-18T13:24:05;2.47;;;2.28;;
75858;SDS011;64504;51.308;8.620;2022-11-18T13:26:32;5.72;;;3.22;;
75858;SDS011;64504;51.308;8.620;2022-11-18T13:31:52;2.97;;;2.78;;
75858;SDS011;64504;51.308;8.620;2022-11-18T13:34:44;3.92;;;3.47;;
75858;SDS011;64504;51.308;8.620;2022-11-18T13:37:14;4.13;;;3.75;;
75858;SDS011;64504;51.308;8.620;2022-11-18T13:39:42;3.05;;;2.85;;
75858;SDS011;64504;51.308;8.620;2022-11-18T13:44:53;4.85;;;3.65;;
75858;SDS011;64504;51.308;8.620;2022-11-18T13:47:25;9.38;;;4.43;;
75858;SDS011;64504;51.308;8.620;2022-11-18T13:52:38;14.00;;;3.65;;
75858;SDS011;64504;51.308;8.620;2022-11-18T13:55:18;3.58;;;3.17;;
75858;SDS011;64504;51.308;8.620;2022-11-18T13:57:47;3.20;;;2.85;;
75858;SDS011;64504;51.308;8.620;2022-11-18T14:00:21;6.20;;;3.00;;
75858;SDS011;64504;51.308;8.620;2022-11-18T14:02:52;2.53;;;1.98;;
75858;SDS011;64504;51.308;8.620;2022-11-18T14:05:19;2.55;;;2.35;;
75858;SDS011;64504;51.308;8.620;2022-11-18T14:08:19;3.08;;;2.22;;
75858;SDS011;64504;51.308;8.620;2022-11-18T14:10:46;3.35;;;1.90;;
75858;SDS011;64504;51.308;8.620;2022-11-18T14:13:15;2.00;;;1.80;;
75858;SDS011;64504;51.308;8.620;2022-11-18T14:15:41;3.50;;;2.55;;
75858;SDS011;64504;51.308;8.620;2022-11-18T14:18:15;1.67;;;1.35;;
75858;SDS011;64504;51.308;8.620;2022-11-18T14:20:48;1.20;;;1.10;;
75858;SDS011;64504;51.308;8.620;2022-11-18T14:23:15;1.45;;;1.08;;
75858;SDS011;64504;51.308;8.620;2022-11-18T14:25:42;2.00;;;1.73;;
75858;SDS011;64504;51.308;8.620;2022-11-18T14:28:18;3.30;;;2.53;;
75858;SDS011;64504;51.308;8.620;2022-11-18T14:30:55;1.63;;;1.25;;
75858;SDS011;64504;51.308;8.620;2022-11-18T14:33:28;7.47;;;1.88;;
75858;SDS011;64504;51.308;8.620;2022-11-18T14:36:11;4.10;;;1.83;;
75858;SDS011;64504;51.308;8.620;2022-11-18T14:38:41;6.20;;;1.50;;
75858;SDS011;64504;51.308;8.620;2022-11-18T14:41:08;1.30;;;1.20;;
75858;SDS011;64504;51.308;8.620;2022-11-18T14:43:36;3.42;;;1.63;;
75858;SDS011;64504;51.308;8.620;2022-11-18T14:46:04;1.90;;;1.50;;
75858;SDS011;64504;51.308;8.620;2022-11-18T14:48:31;3.28;;;1.50;;
75858;SDS011;64504;51.308;8.620;2022-11-18T14:50:57;1.75;;;1.25;;
75858;SDS011;64504;51.308;8.620;2022-11-18T14:53:23;2.20;;;2.00;;
75858;SDS011;64504;51.308;8.620;2022-11-18T14:55:50;2.83;;;1.83;;
75858;SDS011;64504;51.308;8.620;2022-11-18T14:58:16;3.70;;;1.02;;
75858;SDS011;64504;51.308;8.620;2022-11-18T15:00:43;1.50;;;1.40;;
75858;SDS011;64504;51.308;8.620;2022-11-18T15:03:10;2.03;;;1.83;;
75858;SDS011;64504;51.308;8.620;2022-11-18T15:05:36;2.20;;;1.77;;
75858;SDS011;64504;51.308;8.620;2022-11-18T15:08:01;3.33;;;1.90;;
75858;SDS011;64504;51.308;8.620;2022-11-18T15:10:27;1.63;;;1.45;;
75858;SDS011;64504;51.308;8.620;2022-11-18T15:12:53;2.15;;;1.98;;
75858;SDS011;64504;51.308;8.620;2022-11-18T15:15:19;1.88;;;1.70;;
75858;SDS011;64504;51.308;8.620;2022-11-18T15:17:44;3.33;;;2.25;;
75858;SDS011;64504;51.308;8.620;2022-11-18T15:20:13;1.75;;;1.40;;
75858;SDS011;64504;51.308;8.620;2022-11-18T15:22:40;5.38;;;1.67;;
75858;SDS011;64504;51.308;8.620;2022-11-18T15:25:07;2.47;;;1.48;;
75858;SDS011;64504;51.308;8.620;2022-11-18T15:27:33;2.05;;;1.58;;
75858;SDS011;64504;51.308;8.620;2022-11-18T15:29:58;2.08;;;1.98;;
75858;SDS011;64504;51.308;8.620;2022-11-18T15:32:24;1.80;;;1.70;;
75858;SDS011;64504;51.308;8.620;2022-11-18T15:34:49;4.82;;;1.20;;
75858;SDS011;64504;51.308;8.620;2022-11-18T15:37:16;5.90;;;1.77;;
75858;SDS011;64504;51.308;8.620;2022-11-18T15:39:42;4.03;;;3.42;;
75858;SDS011;64504;51.308;8.620;2022-11-18T15:42:10;1.88;;;1.70;;
75858;SDS011;64504;51.308;8.620;2022-11-18T15:44:35;1.45;;;1.23;;
75858;SDS011;64504;51.308;8.620;2022-11-18T15:47:01;5.30;;;3.08;;
75858;SDS011;64504;51.308;8.620;2022-11-18T15:49:27;13.52;;;4.38;;
75858;SDS011;64504;51.308;8.620;2022-11-18T15:51:53;3.28;;;2.08;;
75858;SDS011;64504;51.308;8.620;2022-11-18T15:54:18;18.02;;;13.27;;
75858;SDS011;64504;51.308;8.620;2022-11-18T15:56:44;13.35;;;8.57;;
75858;SDS011;64504;51.308;8.620;2022-11-18T15:59:13;10.48;;;5.93;;
75858;SDS011;64504;51.308;8.620;2022-11-18T16:01:41;8.30;;;4.63;;
75858;SDS011;64504;51.308;8.620;2022-11-18T16:04:09;5.65;;;4.47;;
75858;SDS011;64504;51.308;8.620;2022-11-18T16:06:35;3.05;;;2.53;;
75858;SDS011;64504;51.308;8.620;2022-11-18T16:09:02;8.90;;;6.40;;
75858;SDS011;64504;51.308;8.620;2022-11-18T16:11:28;3.97;;;3.65;;
75858;SDS011;64504;51.308;8.620;2022-11-18T16:14:13;6.00;;;4.40;;
75858;SDS011;64504;51.308;8.620;2022-11-18T16:16:40;2.22;;;1.98;;
75858;SDS011;64504;51.308;8.620;2022-11-18T16:19:11;2.03;;;1.92;;
75858;SDS011;64504;51.308;8.620;2022-11-18T16:21:38;2.35;;;1.98;;
75858;SDS011;64504;51.308;8.620;2022-11-18T16:24:06;2.00;;;1.75;;
75858;SDS011;64504;51.308;8.620;2022-11-18T16:26:33;1.85;;;1.70;;
75858;SDS011;64504;51.308;8.620;2022-11-18T16:28:59;2.85;;;1.67;;
75858;SDS011;64504;51.308;8.620;2022-11-18T16:31:28;2.45;;;1.48;;
75858;SDS011;64504;51.308;8.620;2022-11-18T16:36:34;11.27;;;2.67;;
75858;SDS011;64504;51.308;8.620;2022-11-18T16:39:05;2.13;;;1.95;;
75858;SDS011;64504;51.308;8.620;2022-11-18T16:41:35;2.30;;;1.65;;
75858;SDS011;64504;51.308;8.620;2022-11-18T16:44:02;6.18;;;3.03;;
75858;SDS011;64504;51.308;8.620;2022-11-18T16:46:33;3.50;;;2.42;;
75858;SDS011;64504;51.308;8.620;2022-11-18T16:49:00;2.03;;;1.83;;
75858;SDS011;64504;51.308;8.620;2022-11-18T16:51:27;2.20;;;1.55;;
75858;SDS011;64504;51.308;8.620;2022-11-18T16:53:55;7.63;;;6.68;;
75858;SDS011;64504;51.308;8.620;2022-11-18T16:56:24;5.57;;;5.00;;
75858;SDS011;64504;51.308;8.620;2022-11-18T16:58:54;1.60;;;1.50;;
75858;SDS011;64504;51.308;8.620;2022-11-18T17:01:24;1.55;;;1.45;;
75858;SDS011;64504;51.308;8.620;2022-11-18T17:03:51;3.20;;;2.20;;
75858;SDS011;64504;51.308;8.620;2022-11-18T17:06:17;4.22;;;3.50;;